Time,TemperatureF,DewpointF,PressureIn,WindDirection,WindDirectionDegrees,WindSpeedMPH,WindSpeedGustMPH,Humidity,HourlyPrecipIn,Conditions,Clouds,dailyrainin,SoftwareType,DateUTC
2016-09-29 00:04:00,48.6,46.7,30.44,North,5,0.0,0.0,93,0.00,,,0.00,Wunderground v.1.15,2016-09-29 04:04:00,
2016-09-29 00:10:00,48.6,46.7,30.44,North,5,0.0,0.0,93,0.00,,,0.00,Wunderground v.1.15,2016-09-29 04:10:00,
2016-09-29 00:15:00,48.7,46.8,30.45,North,360,0.0,0.0,93,0.00,,,0.00,Wunderground v.1.15,2016-09-29 04:15:00,
2016-09-29 00:21:00,48.7,46.8,30.44,North,5,0.0,0.0,93,0.00,,,0.00,Wunderground v.1.15,2016-09-29 04:21:00,
2016-09-29 00:26:00,48.7,46.8,30.45,North,360,0.0,0.0,93,0.00,,,0.00,Wunderground v.1.15,2016-09-29 04:26:00,
2016-09-29 00:31:00,48.7,46.8,30.45,North,5,0.0,0.0,93,0.00,,,0.00,Wunderground v.1.15,2016-09-29 04:31:00,
2016-09-29 00:36:00,48.6,46.7,30.45,North,360,0.0,0.0,93,0.00,,,0.00,Wunderground v.1.15,2016-09-29 04:36:00,
2016-09-29 00:42:00,48.7,46.8,30.44,North,5,0.0,0.0,93,0.00,,,0.00,Wunderground v.1.15,2016-09-29 04:42:00,
2016-09-29 00:47:00,48.7,46.8,30.44,North,5,0.0,0.0,93,0.00,,,0.00,Wunderground v.1.15,2016-09-29 04:47:00,
2016-09-29 00:52:00,48.7,46.8,30.45,North,360,0.0,0.0,93,0.00,,,0.00,Wunderground v.1.15,2016-09-29 04:52:00,
2016-09-29 00:57:00,48.8,46.9,30.44,North,5,0.0,0.0,93,0.00,,,0.00,Wunderground v.1.15,2016-09-29 04:57:00,
2016-09-29 01:03:00,48.8,46.9,30.44,North,5,0.0,0.0,93,0.00,,,0.00,Wunderground v.1.15,2016-09-29 05:03:00,
2016-09-29 01:09:00,48.8,46.9,30.44,North,5,0.0,0.0,93,0.00,,,0.00,Wunderground v.1.15,2016-09-29 05:09:00,
2016-09-29 01:19:00,48.6,46.7,30.44,North,5,0.0,0.0,93,0.00,,,0.00,Wunderground v.1.15,2016-09-29 05:19:00,
2016-09-29 01:24:00,48.3,46.4,30.45,North,5,0.0,0.0,93,0.00,,,0.00,Wunderground v.1.15,2016-09-29 05:24:00,
2016-09-29 01:29:00,48.0,46.1,30.45,North,5,0.0,0.0,93,0.00,,,0.00,Wunderground v.1.15,2016-09-29 05:29:00,
2016-09-29 01:35:00,48.0,46.1,30.45,North,360,0.0,0.0,93,0.00,,,0.00,Wunderground v.1.15,2016-09-29 05:35:00,
2016-09-29 01:40:00,47.9,46.0,30.45,North,360,0.0,0.0,93,0.00,,,0.00,Wunderground v.1.15,2016-09-29 05:40:00,
2016-09-29 01:45:00,47.8,45.9,30.45,North,5,0.0,0.0,93,0.00,,,0.00,Wunderground v.1.15,2016-09-29 05:45:00,
2016-09-29 01:51:00,47.6,45.7,30.45,North,5,0.0,0.0,93,0.00,,,0.00,Wunderground v.1.15,2016-09-29 05:51:00,
2016-09-29 01:56:00,47.4,45.5,30.45,North,5,0.0,0.0,93,0.00,,,0.00,Wunderground v.1.15,2016-09-29 05:56:00,
2016-09-29 02:01:00,47.4,45.5,30.45,North,5,0.0,0.0,93,0.00,,,0.00,Wunderground v.1.15,2016-09-29 06:01:00,
2016-09-29 02:07:00,47.3,45.4,30.45,North,360,0.0,0.0,93,0.00,,,0.00,Wunderground v.1.15,2016-09-29 06:07:00,
2016-09-29 02:12:00,47.1,45.2,30.45,North,360,0.0,0.0,93,0.00,,,0.00,Wunderground v.1.15,2016-09-29 06:12:00,
2016-09-29 02:18:00,47.0,45.1,30.45,North,5,0.0,0.0,93,0.00,,,0.00,Wunderground v.1.15,2016-09-29 06:18:00,
2016-09-29 02:23:00,46.9,45.0,30.45,North,5,0.0,0.0,93,0.00,,,0.00,Wunderground v.1.15,2016-09-29 06:23:00,
2016-09-29 02:29:00,46.8,44.9,30.44,North,360,0.0,0.0,93,0.00,,,0.00,Wunderground v.1.15,2016-09-29 06:29:00,
2016-09-29 02:34:00,46.6,44.7,30.44,North,360,0.0,0.0,93,0.00,,,0.00,Wunderground v.1.15,2016-09-29 06:34:00,
2016-09-29 02:39:00,46.4,44.5,30.45,North,5,0.0,0.0,93,0.00,,,0.00,Wunderground v.1.15,2016-09-29 06:39:00,
2016-09-29 02:44:00,46.2,44.3,30.45,North,5,0.0,0.0,93,0.00,,,0.00,Wunderground v.1.15,2016-09-29 06:44:00,
2016-09-29 02:50:00,46.0,44.1,30.45,North,5,0.0,0.0,93,0.00,,,0.00,Wunderground v.1.15,2016-09-29 06:50:00,
2016-09-29 02:55:00,45.8,43.9,30.45,North,5,0.0,0.0,93,0.00,,,0.00,Wunderground v.1.15,2016-09-29 06:55:00,
2016-09-29 03:00:00,45.7,43.8,30.45,North,5,0.0,0.0,93,0.00,,,0.00,Wunderground v.1.15,2016-09-29 07:00:00,
2016-09-29 03:05:00,45.6,43.7,30.45,North,5,0.0,0.0,93,0.00,,,0.00,Wunderground v.1.15,2016-09-29 07:05:00,
2016-09-29 03:11:00,45.3,43.4,30.45,North,5,0.0,0.0,93,0.00,,,0.00,Wunderground v.1.15,2016-09-29 07:11:00,
2016-09-29 03:16:00,45.0,43.1,30.45,North,5,0.0,0.0,93,0.00,,,0.00,Wunderground v.1.15,2016-09-29 07:16:00,
2016-09-29 03:21:00,44.9,43.0,30.45,North,360,0.0,0.0,93,0.00,,,0.00,Wunderground v.1.15,2016-09-29 07:21:00,
2016-09-29 03:26:00,44.9,43.0,30.45,North,360,0.0,0.0,93,0.00,,,0.00,Wunderground v.1.15,2016-09-29 07:26:00,
2016-09-29 03:32:00,44.6,42.7,30.45,North,360,0.0,0.0,93,0.00,,,0.00,Wunderground v.1.15,2016-09-29 07:32:00,
2016-09-29 03:37:00,44.3,42.4,30.45,North,360,0.0,0.0,93,0.00,,,0.00,Wunderground v.1.15,2016-09-29 07:37:00,
2016-09-29 03:43:00,43.9,42.0,30.45,North,360,0.0,0.0,93,0.00,,,0.00,Wunderground v.1.15,2016-09-29 07:43:00,
2016-09-29 03:48:00,43.7,41.8,30.45,North,5,0.0,0.0,93,0.00,,,0.00,Wunderground v.1.15,2016-09-29 07:48:00,
2016-09-29 03:53:00,43.6,41.7,30.45,North,5,0.0,0.0,93,0.00,,,0.00,Wunderground v.1.15,2016-09-29 07:53:00,
2016-09-29 03:58:00,43.4,41.5,30.46,North,5,0.0,0.0,93,0.00,,,0.00,Wunderground v.1.15,2016-09-29 07:58:00,
2016-09-29 04:03:00,43.1,41.2,30.46,North,5,0.0,0.0,93,0.00,,,0.00,Wunderground v.1.15,2016-09-29 08:03:00,
2016-09-29 04:09:00,42.9,41.0,30.46,North,5,0.0,0.0,93,0.00,,,0.00,Wunderground v.1.15,2016-09-29 08:09:00,
2016-09-29 04:14:00,42.7,40.8,30.47,North,5,0.0,0.0,93,0.00,,,0.00,Wunderground v.1.15,2016-09-29 08:14:00,
2016-09-29 04:19:00,42.6,40.7,30.47,North,360,0.0,0.0,93,0.00,,,0.00,Wunderground v.1.15,2016-09-29 08:19:00,
2016-09-29 04:25:00,42.4,40.5,30.47,North,360,0.0,0.0,93,0.00,,,0.00,Wunderground v.1.15,2016-09-29 08:25:00,
2016-09-29 04:30:00,42.2,40.3,30.47,North,360,0.0,0.0,93,0.00,,,0.00,Wunderground v.1.15,2016-09-29 08:30:00,
2016-09-29 04:40:00,41.9,40.0,30.47,North,5,0.0,0.0,93,0.00,,,0.00,Wunderground v.1.15,2016-09-29 08:40:00,
2016-09-29 04:46:00,41.7,39.8,30.47,North,5,0.0,0.0,93,0.00,,,0.00,Wunderground v.1.15,2016-09-29 08:46:00,
2016-09-29 04:51:00,41.5,39.6,30.47,North,5,0.0,0.0,93,0.00,,,0.00,Wunderground v.1.15,2016-09-29 08:51:00,
2016-09-29 04:57:00,41.2,39.3,30.47,North,5,0.0,0.0,93,0.00,,,0.00,Wunderground v.1.15,2016-09-29 08:57:00,
2016-09-29 05:02:00,41.1,39.2,30.47,North,5,0.0,0.0,93,0.00,,,0.00,Wunderground v.1.15,2016-09-29 09:02:00,
2016-09-29 05:08:00,40.9,39.0,30.47,North,5,0.0,0.0,93,0.00,,,0.00,Wunderground v.1.15,2016-09-29 09:08:00,
2016-09-29 05:13:00,40.9,39.0,30.47,North,5,0.0,0.0,93,0.00,,,0.00,Wunderground v.1.15,2016-09-29 09:13:00,
2016-09-29 05:19:00,41.2,39.3,30.48,North,360,0.0,0.0,93,0.00,,,0.00,Wunderground v.1.15,2016-09-29 09:19:00,
2016-09-29 05:29:00,41.1,39.2,30.48,North,5,0.0,0.0,93,0.00,,,0.00,Wunderground v.1.15,2016-09-29 09:29:00,
2016-09-29 05:35:00,41.2,39.3,30.48,North,360,0.0,0.0,93,0.00,,,0.00,Wunderground v.1.15,2016-09-29 09:35:00,
2016-09-29 05:40:00,41.1,39.2,30.48,North,360,0.0,0.0,93,0.00,,,0.01,Wunderground v.1.15,2016-09-29 09:40:00,
2016-09-29 05:45:00,41.0,39.1,30.49,North,5,0.0,0.0,93,0.00,,,0.01,Wunderground v.1.15,2016-09-29 09:45:00,
2016-09-29 05:50:00,40.9,39.0,30.49,North,5,0.0,0.0,93,0.00,,,0.01,Wunderground v.1.15,2016-09-29 09:50:00,
2016-09-29 05:56:00,40.7,38.8,30.49,North,5,0.0,0.0,93,0.00,,,0.01,Wunderground v.1.15,2016-09-29 09:56:00,
2016-09-29 06:01:00,40.7,38.8,30.49,North,360,0.0,0.0,93,0.00,,,0.01,Wunderground v.1.15,2016-09-29 10:01:00,
2016-09-29 06:06:00,40.6,38.7,30.49,North,5,0.0,0.0,93,0.00,,,0.01,Wunderground v.1.15,2016-09-29 10:06:00,
2016-09-29 06:12:00,40.7,38.8,30.49,North,5,0.0,0.0,93,0.00,,,0.01,Wunderground v.1.15,2016-09-29 10:12:00,
2016-09-29 06:17:00,40.6,38.7,30.50,North,360,0.0,0.0,93,0.00,,,0.01,Wunderground v.1.15,2016-09-29 10:17:00,
2016-09-29 06:22:00,40.4,38.5,30.50,North,5,0.0,0.0,93,0.00,,,0.01,Wunderground v.1.15,2016-09-29 10:22:00,
2016-09-29 06:28:00,40.2,38.3,30.51,North,5,0.0,0.0,93,0.00,,,0.01,Wunderground v.1.15,2016-09-29 10:28:00,
2016-09-29 06:33:00,40.0,38.1,30.50,North,5,0.0,0.0,93,0.00,,,0.01,Wunderground v.1.15,2016-09-29 10:33:00,
2016-09-29 06:38:00,40.0,38.1,30.50,North,5,0.0,0.0,93,0.00,,,0.01,Wunderground v.1.15,2016-09-29 10:38:00,
2016-09-29 06:44:00,40.1,38.2,30.50,North,5,0.0,0.0,93,0.00,,,0.01,Wunderground v.1.15,2016-09-29 10:44:00,
2016-09-29 06:49:00,40.1,38.2,30.50,North,360,0.0,0.0,93,0.00,,,0.01,Wunderground v.1.15,2016-09-29 10:49:00,
2016-09-29 06:54:00,40.1,38.2,30.51,North,5,0.0,0.0,93,0.00,,,0.01,Wunderground v.1.15,2016-09-29 10:54:00,
2016-09-29 06:59:00,39.9,38.0,30.51,North,5,0.0,0.0,93,0.00,,,0.01,Wunderground v.1.15,2016-09-29 10:59:00,
2016-09-29 07:05:00,39.7,37.8,30.51,North,5,0.0,0.0,93,0.00,,,0.01,Wunderground v.1.15,2016-09-29 11:05:00,
2016-09-29 07:11:00,39.6,37.7,30.51,North,360,0.0,0.0,93,0.00,,,0.01,Wunderground v.1.15,2016-09-29 11:11:00,
2016-09-29 07:16:00,39.6,37.7,30.51,North,5,0.0,0.0,93,0.00,,,0.01,Wunderground v.1.15,2016-09-29 11:16:00,
2016-09-29 07:22:00,39.5,37.6,30.52,North,5,0.0,0.0,93,0.00,,,0.01,Wunderground v.1.15,2016-09-29 11:22:00,
2016-09-29 07:27:00,39.5,37.6,30.52,North,5,0.0,0.0,93,0.00,,,0.01,Wunderground v.1.15,2016-09-29 11:27:00,
2016-09-29 07:32:00,39.5,37.6,30.53,North,360,0.0,0.0,93,0.00,,,0.01,Wunderground v.1.15,2016-09-29 11:32:00,
2016-09-29 07:38:00,39.6,37.7,30.53,North,360,0.0,0.0,93,0.00,,,0.01,Wunderground v.1.15,2016-09-29 11:38:00,
2016-09-29 07:48:00,40.7,38.8,30.53,North,5,0.0,0.0,93,0.00,,,0.01,Wunderground v.1.15,2016-09-29 11:48:00,
2016-09-29 07:53:00,41.2,39.3,30.53,North,5,0.0,0.0,93,0.00,,,0.01,Wunderground v.1.15,2016-09-29 11:53:00,
2016-09-29 07:59:00,41.6,40.0,30.53,North,5,0.0,0.0,94,0.00,,,0.01,Wunderground v.1.15,2016-09-29 11:59:00,
2016-09-29 08:05:00,42.0,40.1,30.53,North,5,0.0,0.0,93,0.00,,,0.01,Wunderground v.1.15,2016-09-29 12:05:00,
2016-09-29 08:11:00,42.3,40.7,30.53,North,5,0.0,0.0,94,0.00,,,0.01,Wunderground v.1.15,2016-09-29 12:11:00,
2016-09-29 08:16:00,42.5,40.6,30.53,North,5,0.0,0.0,93,0.00,,,0.01,Wunderground v.1.15,2016-09-29 12:16:00,
2016-09-29 08:22:00,42.7,41.1,30.53,North,5,0.0,0.0,94,0.00,,,0.01,Wunderground v.1.15,2016-09-29 12:22:00,
2016-09-29 08:28:00,42.9,41.3,30.54,North,5,0.0,0.0,94,0.00,,,0.01,Wunderground v.1.15,2016-09-29 12:28:00,
2016-09-29 08:33:00,43.0,41.1,30.54,North,5,0.0,0.0,93,0.00,,,0.01,Wunderground v.1.15,2016-09-29 12:33:00,
2016-09-29 08:38:00,43.2,41.3,30.54,North,5,0.0,0.0,93,0.00,,,0.01,Wunderground v.1.15,2016-09-29 12:38:00,
2016-09-29 08:44:00,43.6,42.0,30.54,North,360,0.0,0.0,94,0.00,,,0.01,Wunderground v.1.15,2016-09-29 12:44:00,
2016-09-29 08:49:00,43.9,42.3,30.55,North,5,0.0,0.0,94,0.00,,,0.01,Wunderground v.1.15,2016-09-29 12:49:00,
2016-09-29 08:54:00,44.3,42.7,30.55,North,360,0.0,0.0,94,0.00,,,0.01,Wunderground v.1.15,2016-09-29 12:54:00,
2016-09-29 09:01:00,45.0,43.4,30.55,North,5,0.0,0.0,94,0.00,,,0.01,Wunderground v.1.15,2016-09-29 13:01:00,
2016-09-29 09:07:00,45.4,43.8,30.55,North,360,0.0,0.0,94,0.00,,,0.01,Wunderground v.1.15,2016-09-29 13:07:00,
2016-09-29 09:12:00,45.8,44.2,30.56,North,5,0.0,0.0,94,0.00,,,0.01,Wunderground v.1.15,2016-09-29 13:12:00,
2016-09-29 09:17:00,46.5,44.9,30.56,North,5,0.0,1.0,94,0.00,,,0.01,Wunderground v.1.15,2016-09-29 13:17:00,
2016-09-29 09:22:00,47.0,45.4,30.56,North,5,0.0,2.0,94,0.00,,,0.01,Wunderground v.1.15,2016-09-29 13:22:00,